sensor_id;sensor_type;location;lat;lon;timestamp;pressure;altitude;pressure_sealevel;temperature;humidity
83460;BME280;73384;49.646;7.168;2024-03-02T00:01:57;96013.91;;;4.59;78.81
83460;BME280;73384;49.646;7.168;2024-03-02T00:04:31;95998.88;;;4.53;79.00
83460;BME280;73384;49.646;7.168;2024-03-02T00:06:59;96020.78;;;4.67;79.27
83460;BME280;73384;49.646;7.168;2024-03-02T00:09:25;96026.03;;;4.74;78.66
83460;BME280;73384;49.646;7.168;2024-03-02T00:11:53;96000.72;;;4.53;79.55
83460;BME280;73384;49.646;7.168;2024-03-02T00:14:23;95973.59;;;4.32;79.96
83460;BME280;73384;49.646;7.168;2024-03-02T00:16:54;96023.28;;;4.62;79.80
83460;BME280;73384;49.646;7.168;2024-03-02T00:19:25;96003.66;;;4.44;79.76
83460;BME280;73384;49.646;7.168;2024-03-02T00:21:51;96009.19;;;4.43;80.36
83460;BME280;73384;49.646;7.168;2024-03-02T00:24:39;96012.78;;;4.48;79.74
83460;BME280;73384;49.646;7.168;2024-03-02T00:27:10;95993.78;;;4.33;80.00
83460;BME280;73384;49.646;7.168;2024-03-02T00:29:41;95991.34;;;4.31;79.92
83460;BME280;73384;49.646;7.168;2024-03-02T00:32:18;96010.09;;;4.55;79.81
83460;BME280;73384;49.646;7.168;2024-03-02T00:34:46;95972.34;;;4.35;79.17
83460;BME280;73384;49.646;7.168;2024-03-02T00:37:17;96009.91;;;4.50;79.37
83460;BME280;73384;49.646;7.168;2024-03-02T00:39:51;95976.31;;;4.25;80.42
83460;BME280;73384;49.646;7.168;2024-03-02T00:42:22;96012.28;;;4.40;79.86
83460;BME280;73384;49.646;7.168;2024-03-02T00:44:56;96006.38;;;4.38;80.36
83460;BME280;73384;49.646;7.168;2024-03-02T00:47:21;95964.81;;;4.13;80.12
83460;BME280;73384;49.646;7.168;2024-03-02T00:49:56;95988.94;;;4.23;80.19
83460;BME280;73384;49.646;7.168;2024-03-02T00:52:27;95959.09;;;4.09;79.82
83460;BME280;73384;49.646;7.168;2024-03-02T00:54:57;96014.13;;;4.39;80.35
83460;BME280;73384;49.646;7.168;2024-03-02T00:57:28;96011.91;;;4.36;80.20
83460;BME280;73384;49.646;7.168;2024-03-02T00:59:57;95992.00;;;4.27;80.64
83460;BME280;73384;49.646;7.168;2024-03-02T01:02:24;96012.84;;;4.42;80.05
83460;BME280;73384;49.646;7.168;2024-03-02T01:04:53;95973.28;;;4.22;80.28
83460;BME280;73384;49.646;7.168;2024-03-02T01:07:18;96007.41;;;4.37;80.15
83460;BME280;73384;49.646;7.168;2024-03-02T01:09:46;95971.13;;;4.12;80.63
83460;BME280;73384;49.646;7.168;2024-03-02T01:12:12;96001.72;;;4.33;80.82
83460;BME280;73384;49.646;7.168;2024-03-02T01:14:37;95956.09;;;4.06;80.53
83460;BME280;73384;49.646;7.168;2024-03-02T01:17:05;95974.97;;;4.16;80.27
83460;BME280;73384;49.646;7.168;2024-03-02T01:19:38;96007.47;;;4.30;80.38
83460;BME280;73384;49.646;7.168;2024-03-02T01:22:06;95954.09;;;4.01;80.98
83460;BME280;73384;49.646;7.168;2024-03-02T01:24:38;96009.28;;;4.29;80.58
83460;BME280;73384;49.646;7.168;2024-03-02T01:27:09;95978.06;;;4.13;81.16
83460;BME280;73384;49.646;7.168;2024-03-02T01:29:37;95969.44;;;4.18;80.98
83460;BME280;73384;49.646;7.168;2024-03-02T01:32:06;95997.66;;;4.30;80.82
83460;BME280;73384;49.646;7.168;2024-03-02T01:34:31;95981.06;;;4.17;80.53
83460;BME280;73384;49.646;7.168;2024-03-02T01:37:02;95961.38;;;4.06;81.05
83460;BME280;73384;49.646;7.168;2024-03-02T01:39:31;95962.38;;;4.11;80.92
83460;BME280;73384;49.646;7.168;2024-03-02T01:41:57;95994.59;;;4.33;80.41
83460;BME280;73384;49.646;7.168;2024-03-02T01:44:25;95969.22;;;4.19;80.49
83460;BME280;73384;49.646;7.168;2024-03-02T01:46:53;95972.97;;;4.11;80.81
83460;BME280;73384;49.646;7.168;2024-03-02T01:49:19;95966.47;;;4.07;80.57
83460;BME280;73384;49.646;7.168;2024-03-02T01:51:47;95984.72;;;4.15;80.65
83460;BME280;73384;49.646;7.168;2024-03-02T01:54:20;96004.41;;;4.26;80.69
83460;BME280;73384;49.646;7.168;2024-03-02T01:56:46;95947.84;;;3.95;80.64
83460;BME280;73384;49.646;7.168;2024-03-02T01:59:11;95994.88;;;4.25;80.84
83460;BME280;73384;49.646;7.168;2024-03-02T02:01:42;95958.75;;;4.06;81.42
83460;BME280;73384;49.646;7.168;2024-03-02T02:04:29;95960.75;;;4.10;81.06
83460;BME280;73384;49.646;7.168;2024-03-02T02:06:54;95972.91;;;4.18;81.43
83460;BME280;73384;49.646;7.168;2024-03-02T02:09:45;95950.63;;;4.01;81.24
83460;BME280;73384;49.646;7.168;2024-03-02T02:12:21;95967.59;;;4.18;80.75
83460;BME280;73384;49.646;7.168;2024-03-02T02:14:55;95958.41;;;4.21;80.85
83460;BME280;73384;49.646;7.168;2024-03-02T02:17:21;95935.19;;;3.97;81.23
83460;BME280;73384;49.646;7.168;2024-03-02T02:22:22;95966.09;;;4.04;81.90
83460;BME280;73384;49.646;7.168;2024-03-02T02:24:47;95944.78;;;3.92;81.48
83460;BME280;73384;49.646;7.168;2024-03-02T02:27:15;95970.97;;;4.07;81.98
83460;BME280;73384;49.646;7.168;2024-03-02T02:29:41;95968.91;;;4.09;82.05
83460;BME280;73384;49.646;7.168;2024-03-02T02:32:09;95962.16;;;4.13;81.95
83460;BME280;73384;49.646;7.168;2024-03-02T02:34:38;95967.22;;;4.14;82.23
83460;BME280;73384;49.646;7.168;2024-03-02T02:37:03;95956.19;;;4.18;81.65
83460;BME280;73384;49.646;7.168;2024-03-02T02:39:31;95954.91;;;4.27;81.32
83460;BME280;73384;49.646;7.168;2024-03-02T02:41:57;95953.47;;;4.24;81.35
83460;BME280;73384;49.646;7.168;2024-03-02T02:44:22;95919.75;;;4.13;79.42
83460;BME280;73384;49.646;7.168;2024-03-02T02:46:51;95934.22;;;4.54;71.45
83460;BME280;73384;49.646;7.168;2024-03-02T02:49:19;95948.50;;;4.72;74.58
83460;BME280;73384;49.646;7.168;2024-03-02T02:51:44;95932.38;;;4.73;72.22
83460;BME280;73384;49.646;7.168;2024-03-02T02:54:12;95954.81;;;4.89;74.47
83460;BME280;73384;49.646;7.168;2024-03-02T02:56:37;95957.13;;;4.85;76.11
83460;BME280;73384;49.646;7.168;2024-03-02T02:59:12;95949.72;;;4.87;76.04
83460;BME280;73384;49.646;7.168;2024-03-02T03:01:38;95895.84;;;4.57;73.89
83460;BME280;73384;49.646;7.168;2024-03-02T03:04:08;95914.91;;;4.84;70.77
83460;BME280;73384;49.646;7.168;2024-03-02T03:06:34;95933.63;;;5.19;68.65
83460;BME280;73384;49.646;7.168;2024-03-02T03:09:02;95905.91;;;5.15;67.50
83460;BME280;73384;49.646;7.168;2024-03-02T03:11:29;95923.81;;;5.50;67.30
83460;BME280;73384;49.646;7.168;2024-03-02T03:13:54;95900.44;;;5.40;66.95
83460;BME280;73384;49.646;7.168;2024-03-02T03:16:20;95914.09;;;5.44;66.51
83460;BME280;73384;49.646;7.168;2024-03-02T03:18:48;95900.81;;;5.44;65.94
83460;BME280;73384;49.646;7.168;2024-03-02T03:21:18;95941.16;;;5.65;66.50
83460;BME280;73384;49.646;7.168;2024-03-02T03:23:49;95925.47;;;5.63;67.30
83460;BME280;73384;49.646;7.168;2024-03-02T03:26:17;95875.00;;;5.21;69.35
83460;BME280;73384;49.646;7.168;2024-03-02T03:28:45;95913.47;;;5.30;72.02
83460;BME280;73384;49.646;7.168;2024-03-02T03:31:13;95935.28;;;5.32;72.79
83460;BME280;73384;49.646;7.168;2024-03-02T03:33:50;95909.41;;;5.16;71.51
83460;BME280;73384;49.646;7.168;2024-03-02T03:39:23;95939.84;;;5.13;75.79
83460;BME280;73384;49.646;7.168;2024-03-02T03:41:51;95944.50;;;4.99;76.40
83460;BME280;73384;49.646;7.168;2024-03-02T03:44:17;95937.78;;;4.97;76.08
83460;BME280;73384;49.646;7.168;2024-03-02T03:46:45;95944.28;;;5.01;76.73
83460;BME280;73384;49.646;7.168;2024-03-02T03:49:16;95945.03;;;4.90;77.41
83460;BME280;73384;49.646;7.168;2024-03-02T03:51:53;95922.50;;;4.80;77.26
83460;BME280;73384;49.646;7.168;2024-03-02T03:54:19;95921.28;;;4.95;70.55
83460;BME280;73384;49.646;7.168;2024-03-02T03:56:50;95918.41;;;4.96;70.40
83460;BME280;73384;49.646;7.168;2024-03-02T03:59:22;95932.94;;;4.94;74.58
83460;BME280;73384;49.646;7.168;2024-03-02T04:01:49;95934.56;;;5.55;68.38
83460;BME280;73384;49.646;7.168;2024-03-02T04:04:22;95908.41;;;5.40;68.44
83460;BME280;73384;49.646;7.168;2024-03-02T04:06:48;95893.88;;;5.43;66.97
83460;BME280;73384;49.646;7.168;2024-03-02T04:09:13;95913.78;;;5.52;66.79
83460;BME280;73384;49.646;7.168;2024-03-02T04:11:39;95939.44;;;5.70;66.22
83460;BME280;73384;49.646;7.168;2024-03-02T04:14:04;95916.09;;;5.61;65.00
83460;BME280;73384;49.646;7.168;2024-03-02T04:16:31;95951.56;;;5.78;66.37
83460;BME280;73384;49.646;7.168;2024-03-02T04:18:57;95941.66;;;5.85;65.83
83460;BME280;73384;49.646;7.168;2024-03-02T04:21:22;95893.25;;;5.59;65.15
83460;BME280;73384;49.646;7.168;2024-03-02T04:23:51;95945.59;;;5.94;65.12
83460;BME280;73384;49.646;7.168;2024-03-02T04:26:17;95935.44;;;5.91;65.56
83460;BME280;73384;49.646;7.168;2024-03-02T04:28:49;95943.69;;;6.02;64.69
83460;BME280;73384;49.646;7.168;2024-03-02T04:31:18;95949.47;;;5.99;65.74
83460;BME280;73384;49.646;7.168;2024-03-02T04:33:43;95926.66;;;5.91;64.98
83460;BME280;73384;49.646;7.168;2024-03-02T04:36:12;95928.94;;;5.87;65.40
83460;BME280;73384;49.646;7.168;2024-03-02T04:38:38;95947.69;;;5.92;65.38
83460;BME280;73384;49.646;7.168;2024-03-02T04:41:05;95956.13;;;5.89;66.08
83460;BME280;73384;49.646;7.168;2024-03-02T04:43:34;95960.84;;;5.87;65.66
83460;BME280;73384;49.646;7.168;2024-03-02T04:46:02;95964.66;;;5.91;64.96
83460;BME280;73384;49.646;7.168;2024-03-02T04:48:30;95932.28;;;5.71;64.90
83460;BME280;73384;49.646;7.168;2024-03-02T04:50:59;95932.06;;;5.72;64.80
83460;BME280;73384;49.646;7.168;2024-03-02T04:53:27;95958.66;;;5.96;64.70
83460;BME280;73384;49.646;7.168;2024-03-02T04:56:24;95952.06;;;5.87;64.11
83460;BME280;73384;49.646;7.168;2024-03-02T04:59:12;95967.84;;;6.00;65.01
83460;BME280;73384;49.646;7.168;2024-03-02T05:01:37;95926.06;;;5.77;63.68
83460;BME280;73384;49.646;7.168;2024-03-02T05:04:03;95944.09;;;5.87;64.04
83460;BME280;73384;49.646;7.168;2024-03-02T05:06:28;95950.91;;;5.83;63.19
83460;BME280;73384;49.646;7.168;2024-03-02T05:08:55;95920.03;;;5.58;64.67
83460;BME280;73384;49.646;7.168;2024-03-02T05:11:23;95981.47;;;6.04;63.39
83460;BME280;73384;49.646;7.168;2024-03-02T05:14:11;95968.66;;;6.01;63.32
83460;BME280;73384;49.646;7.168;2024-03-02T05:16:39;95972.13;;;6.13;62.83
83460;BME280;73384;49.646;7.168;2024-03-02T05:19:07;95933.56;;;5.92;62.23
83460;BME280;73384;49.646;7.168;2024-03-02T05:21:33;95952.25;;;6.04;63.56
83460;BME280;73384;49.646;7.168;2024-03-02T05:23:59;95951.66;;;6.02;63.24
83460;BME280;73384;49.646;7.168;2024-03-02T05:26:25;95945.59;;;5.94;63.26
83460;BME280;73384;49.646;7.168;2024-03-02T05:28:50;95963.97;;;5.96;63.31
83460;BME280;73384;49.646;7.168;2024-03-02T05:31:18;95956.25;;;5.94;62.74
83460;BME280;73384;49.646;7.168;2024-03-02T05:33:53;95953.69;;;5.88;63.92
83460;BME280;73384;49.646;7.168;2024-03-02T05:36:40;95943.25;;;5.74;63.34
83460;BME280;73384;49.646;7.168;2024-03-02T05:39:06;95976.09;;;5.92;63.61
83460;BME280;73384;49.646;7.168;2024-03-02T05:41:43;95975.88;;;5.93;63.56
83460;BME280;73384;49.646;7.168;2024-03-02T05:44:08;95975.22;;;5.98;63.97
83460;BME280;73384;49.646;7.168;2024-03-02T05:46:34;95974.41;;;5.98;63.27
83460;BME280;73384;49.646;7.168;2024-03-02T05:49:00;95969.75;;;5.93;64.04
83460;BME280;73384;49.646;7.168;2024-03-02T05:51:26;95931.91;;;5.67;63.58
83460;BME280;73384;49.646;7.168;2024-03-02T05:53:55;95935.75;;;5.59;64.62
83460;BME280;73384;49.646;7.168;2024-03-02T05:56:22;95971.91;;;5.72;64.91
83460;BME280;73384;49.646;7.168;2024-03-02T05:58:48;95943.94;;;5.58;64.32
83460;BME280;73384;49.646;7.168;2024-03-02T06:01:19;95975.72;;;5.76;64.68
83460;BME280;73384;49.646;7.168;2024-03-02T06:03:54;95975.13;;;5.74;65.25
83460;BME280;73384;49.646;7.168;2024-03-02T06:06:19;95964.63;;;5.68;64.88
83460;BME280;73384;49.646;7.168;2024-03-02T06:08:46;95922.38;;;5.36;65.11
83460;BME280;73384;49.646;7.168;2024-03-02T06:11:11;95981.34;;;5.68;65.08
83460;BME280;73384;49.646;7.168;2024-03-02T06:13:39;95974.91;;;5.64;65.54
83460;BME280;73384;49.646;7.168;2024-03-02T06:16:07;95970.13;;;5.54;65.69
83460;BME280;73384;49.646;7.168;2024-03-02T06:18:34;95945.34;;;5.42;65.74
83460;BME280;73384;49.646;7.168;2024-03-02T06:21:02;95985.66;;;5.69;65.98
83460;BME280;73384;49.646;7.168;2024-03-02T06:23:42;95984.69;;;5.64;65.97
83460;BME280;73384;49.646;7.168;2024-03-02T06:26:11;95970.25;;;5.59;65.94
83460;BME280;73384;49.646;7.168;2024-03-02T06:28:37;95999.63;;;5.76;65.71
83460;BME280;73384;49.646;7.168;2024-03-02T06:31:23;95950.09;;;5.40;66.57
83460;BME280;73384;49.646;7.168;2024-03-02T06:33:51;95993.28;;;5.66;65.98
83460;BME280;73384;49.646;7.168;2024-03-02T06:36:22;96001.34;;;5.71;66.65
83460;BME280;73384;49.646;7.168;2024-03-02T06:38:53;95980.16;;;5.52;66.87
83460;BME280;73384;49.646;7.168;2024-03-02T06:41:22;95994.41;;;5.58;67.25
83460;BME280;73384;49.646;7.168;2024-03-02T06:43:50;95991.34;;;5.54;67.15
83460;BME280;73384;49.646;7.168;2024-03-02T06:46:25;96024.75;;;5.62;68.90
83460;BME280;73384;49.646;7.168;2024-03-02T06:48:53;96029.09;;;5.45;70.96
83460;BME280;73384;49.646;7.168;2024-03-02T06:51:18;95988.16;;;5.03;71.98
83460;BME280;73384;49.646;7.168;2024-03-02T06:53:44;96040.09;;;5.30;71.55
83460;BME280;73384;49.646;7.168;2024-03-02T06:56:12;96038.47;;;5.10;74.23
83460;BME280;73384;49.646;7.168;2024-03-02T06:58:37;96057.72;;;5.05;74.83
83460;BME280;73384;49.646;7.168;2024-03-02T07:01:03;96029.84;;;4.78;75.68
83460;BME280;73384;49.646;7.168;2024-03-02T07:03:39;96056.47;;;4.90;76.79
83460;BME280;73384;49.646;7.168;2024-03-02T07:06:05;96032.66;;;4.83;75.09
83460;BME280;73384;49.646;7.168;2024-03-02T07:08:30;96054.97;;;4.94;76.13
83460;BME280;73384;49.646;7.168;2024-03-02T07:10:56;96042.84;;;4.86;77.14
83460;BME280;73384;49.646;7.168;2024-03-02T07:13:22;96052.09;;;4.95;76.91
83460;BME280;73384;49.646;7.168;2024-03-02T07:15:50;96059.41;;;5.00;76.79
83460;BME280;73384;49.646;7.168;2024-03-02T07:18:31;96064.34;;;4.96;78.02
83460;BME280;73384;49.646;7.168;2024-03-02T07:21:00;96035.31;;;4.83;77.76
83460;BME280;73384;49.646;7.168;2024-03-02T07:26:54;96022.41;;;4.68;79.04
83460;BME280;73384;49.646;7.168;2024-03-02T07:32:30;96031.34;;;4.74;78.27
83460;BME280;73384;49.646;7.168;2024-03-02T07:35:21;96001.09;;;4.56;78.91
83460;BME280;73384;49.646;7.168;2024-03-02T07:48:34;96049.09;;;4.92;78.96
83460;BME280;73384;49.646;7.168;2024-03-02T08:02:14;96018.00;;;5.17;79.04
83460;BME280;73384;49.646;7.168;2024-03-02T08:05:46;96053.22;;;5.43;79.52
83460;BME280;73384;49.646;7.168;2024-03-02T08:08:29;96054.16;;;5.49;80.44
83460;BME280;73384;49.646;7.168;2024-03-02T08:14:58;96015.94;;;5.50;79.42
83460;BME280;73384;49.646;7.168;2024-03-02T09:20:05;96053.84;;;6.18;79.03
83460;BME280;73384;49.646;7.168;2024-03-02T14:11:39;95849.75;;;11.22;51.27
83460;BME280;73384;49.646;7.168;2024-03-02T14:14:54;95835.81;;;11.20;52.00
83460;BME280;73384;49.646;7.168;2024-03-02T14:39:13;95834.44;;;11.02;52.17
83460;BME280;73384;49.646;7.168;2024-03-02T14:52:30;95777.81;;;10.67;51.82
83460;BME280;73384;49.646;7.168;2024-03-02T14:59:13;95822.13;;;11.06;51.50
83460;BME280;73384;49.646;7.168;2024-03-02T15:36:40;95805.00;;;11.12;52.44
83460;BME280;73384;49.646;7.168;2024-03-02T16:16:17;95766.66;;;10.96;52.28
83460;BME280;73384;49.646;7.168;2024-03-02T16:19:25;95743.06;;;10.77;52.20
83460;BME280;73384;49.646;7.168;2024-03-02T16:29:00;95761.84;;;10.93;52.27
83460;BME280;73384;49.646;7.168;2024-03-02T17:48:12;95745.53;;;8.71;69.55
83460;BME280;73384;49.646;7.168;2024-03-02T17:54:40;95782.56;;;8.67;68.49
83460;BME280;73384;49.646;7.168;2024-03-02T18:01:33;95749.22;;;8.42;69.95
83460;BME280;73384;49.646;7.168;2024-03-02T18:05:02;95807.72;;;8.71;70.63
83460;BME280;73384;49.646;7.168;2024-03-02T18:10:44;95771.78;;;8.35;70.49
83460;BME280;73384;49.646;7.168;2024-03-02T18:14:02;95798.53;;;8.40;71.23
83460;BME280;73384;49.646;7.168;2024-03-02T18:31:11;95799.00;;;8.15;68.14
83460;BME280;73384;49.646;7.168;2024-03-02T18:33:52;95798.19;;;8.14;68.82
83460;BME280;73384;49.646;7.168;2024-03-02T18:36:24;95779.47;;;8.09;67.87
83460;BME280;73384;49.646;7.168;2024-03-02T18:38:58;95794.63;;;8.25;67.38
83460;BME280;73384;49.646;7.168;2024-03-02T18:41:53;95745.72;;;7.98;67.59
83460;BME280;73384;49.646;7.168;2024-03-02T18:54:30;95751.56;;;7.95;66.90
83460;BME280;73384;49.646;7.168;2024-03-02T18:57:28;95782.50;;;8.18;67.19
83460;BME280;73384;49.646;7.168;2024-03-02T19:00:05;95808.41;;;8.39;66.44
83460;BME280;73384;49.646;7.168;2024-03-02T19:09:39;95818.50;;;8.59;66.32
83460;BME280;73384;49.646;7.168;2024-03-02T19:12:30;95750.31;;;8.24;66.78
83460;BME280;73384;49.646;7.168;2024-03-02T19:15:13;95761.66;;;8.37;66.91
83460;BME280;73384;49.646;7.168;2024-03-02T19:21:06;95772.34;;;8.15;69.39
83460;BME280;73384;49.646;7.168;2024-03-02T19:26:49;95766.59;;;7.84;70.78
83460;BME280;73384;49.646;7.168;2024-03-02T19:29:37;95737.25;;;7.62;70.21
83460;BME280;73384;49.646;7.168;2024-03-02T19:32:26;95707.31;;;7.37;70.10
83460;BME280;73384;49.646;7.168;2024-03-02T19:35:00;95723.28;;;7.54;69.77
83460;BME280;73384;49.646;7.168;2024-03-02T19:41:12;95710.72;;;7.72;68.99
83460;BME280;73384;49.646;7.168;2024-03-02T19:47:17;95703.75;;;7.66;69.70
83460;BME280;73384;49.646;7.168;2024-03-02T19:53:13;95700.22;;;7.43;70.72
83460;BME280;73384;49.646;7.168;2024-03-02T19:55:48;95740.88;;;7.55;70.66
83460;BME280;73384;49.646;7.168;2024-03-02T19:58:54;95686.69;;;7.11;70.99
83460;BME280;73384;49.646;7.168;2024-03-02T20:01:33;95714.53;;;7.20;71.47
83460;BME280;73384;49.646;7.168;2024-03-02T20:04:19;95739.03;;;7.39;70.20
83460;BME280;73384;49.646;7.168;2024-03-02T21:02:43;95769.38;;;7.04;74.12
83460;BME280;73384;49.646;7.168;2024-03-02T21:05:15;95766.63;;;6.99;74.43
83460;BME280;73384;49.646;7.168;2024-03-02T21:11:25;95732.47;;;6.62;73.76
83460;BME280;73384;49.646;7.168;2024-03-02T21:14:15;95780.44;;;6.96;73.07
83460;BME280;73384;49.646;7.168;2024-03-02T21:21:32;95786.16;;;7.05;73.29
83460;BME280;73384;49.646;7.168;2024-03-02T21:24:56;95790.50;;;7.11;72.82
83460;BME280;73384;49.646;7.168;2024-03-02T21:27:50;95787.28;;;7.09;72.35
83460;BME280;73384;49.646;7.168;2024-03-02T21:30:43;95770.91;;;7.17;72.63
83460;BME280;73384;49.646;7.168;2024-03-02T21:33:46;95752.25;;;7.00;74.29
83460;BME280;73384;49.646;7.168;2024-03-02T21:51:30;95743.38;;;6.48;75.90
83460;BME280;73384;49.646;7.168;2024-03-02T22:39:48;95674.41;;;5.37;80.01
